Time;durP1;ratioP1;P1;durP2;ratioP2;P2;SDS_P1;SDS_P2;PMS_P1;PMS_P2;Temp;Humidity;BMP_temperature;BMP_pressure;BME280_temperature;BME280_humidity;BME280_pressure;Samples;Min_cycle;Max_cycle;Signal;HPM_P1;HPM_P2
2022/09/07 00:00:56;;;;;;;2.10;1.90;;;17.20;99.90;;;;;;5072893;28;20947;-60
2022/09/07 00:03:23;;;;;;;4.53;1.50;;;17.30;99.90;;;;;;5073151;28;20452;-60
2022/09/07 00:05:51;;;;;;;2.23;2.00;;;17.30;99.90;;;;;;5073037;28;20447;-60
2022/09/07 00:08:19;;;;;;;2.00;1.90;;;17.40;99.90;;;;;;5072931;28;20447;-60
2022/09/07 00:10:52;;;;;;;2.63;2.43;;;17.40;99.90;;;;;;5072862;28;20451;-60
2022/09/07 00:13:18;;;;;;;1.83;1.40;;;17.50;99.90;;;;;;5072747;28;20486;-60
2022/09/07 00:15:45;;;;;;;3.20;2.10;;;17.50;99.90;;;;;;5072947;28;20447;-60
2022/09/07 00:18:12;;;;;;;1.83;1.73;;;17.60;99.90;;;;;;5072916;28;20447;-60
2022/09/07 00:20:39;;;;;;;2.37;1.80;;;17.50;99.90;;;;;;5073193;28;20554;-60
2022/09/07 00:23:05;;;;;;;9.30;2.20;;;17.30;99.90;;;;;;5072757;28;20443;-60
2022/09/07 00:25:32;;;;;;;3.23;1.70;;;17.20;99.90;;;;;;5072710;28;20444;-60
2022/09/07 00:27:58;;;;;;;3.70;1.70;;;17.20;99.90;;;;;;5072861;28;20440;-60
2022/09/07 00:30:25;;;;;;;2.07;1.87;;;17.30;99.90;;;;;;5073480;28;20451;-60
2022/09/07 00:32:51;;;;;;;2.10;1.97;;;17.40;99.90;;;;;;5076848;28;20445;-60
2022/09/07 00:35:19;;;;;;;2.93;1.90;;;17.30;99.90;;;;;;5076896;28;20460;-60
2022/09/07 00:37:45;;;;;;;2.67;2.00;;;17.10;99.90;;;;;;5076848;28;20451;-60
2022/09/07 00:40:12;;;;;;;1.90;1.70;;;16.90;99.90;;;;;;5076627;28;20447;-60
2022/09/07 00:42:38;;;;;;;2.50;1.40;;;16.80;99.90;;;;;;5076885;28;20448;-60
2022/09/07 00:45:14;;;;;;;3.23;2.10;;;16.80;99.90;;;;;;5076743;28;20810;-60
2022/09/07 00:47:47;;;;;;;7.40;1.80;;;16.70;99.90;;;;;;5076342;28;20471;-60
2022/09/07 00:50:21;;;;;;;5.87;2.43;;;16.80;99.90;;;;;;5076610;28;20447;-60
2022/09/07 00:52:52;;;;;;;4.70;2.00;;;16.70;99.90;;;;;;5076445;28;20468;-60
2022/09/07 00:55:20;;;;;;;4.73;1.50;;;16.70;99.90;;;;;;5076483;28;20850;-60
2022/09/07 00:57:53;;;;;;;4.50;1.90;;;16.80;99.90;;;;;;5076468;28;20530;-60
2022/09/07 01:00:20;;;;;;;1.70;1.60;;;16.70;99.90;;;;;;5076441;28;20451;-60
2022/09/07 01:02:48;;;;;;;2.40;1.83;;;16.70;99.90;;;;;;5076237;28;20545;-60
2022/09/07 01:05:21;;;;;;;5.40;2.33;;;16.80;99.90;;;;;;5076148;28;20451;-60
2022/09/07 01:07:49;;;;;;;2.67;2.27;;;16.70;99.90;;;;;;5076366;28;20504;-60
2022/09/07 01:10:16;;;;;;;2.60;1.80;;;16.70;99.90;;;;;;5076147;28;20447;-60
2022/09/07 01:12:43;;;;;;;4.30;1.93;;;16.70;99.90;;;;;;5076000;28;20938;-60
2022/09/07 01:15:10;;;;;;;2.90;1.80;;;16.80;99.90;;;;;;5075990;28;20841;-60
2022/09/07 01:17:53;;;;;;;2.13;1.83;;;16.70;99.90;;;;;;5075875;28;20881;-60
2022/09/07 01:20:32;;;;;;;2.93;1.87;;;16.50;99.90;;;;;;5076084;28;20442;-59
2022/09/07 01:23:22;;;;;;;4.50;1.77;;;16.40;99.90;;;;;;5075954;28;20457;-60
2022/09/07 01:26:02;;;;;;;2.37;2.17;;;16.20;99.90;;;;;;5075821;28;20454;-60
2022/09/07 01:28:32;;;;;;;3.17;2.43;;;16.10;99.90;;;;;;5075950;28;20451;-60
2022/09/07 01:31:03;;;;;;;2.30;1.90;;;16.10;99.90;;;;;;5075796;28;20492;-60
2022/09/07 01:33:43;;;;;;;2.37;2.00;;;16.10;99.90;;;;;;5075712;28;20834;-59
2022/09/07 01:36:22;;;;;;;2.63;1.77;;;16.10;99.90;;;;;;5075642;28;20447;-60
2022/09/07 01:38:52;;;;;;;3.73;1.97;;;16.10;99.90;;;;;;5075780;28;20439;-60
2022/09/07 01:41:25;;;;;;;2.90;1.63;;;16.10;99.90;;;;;;5075656;28;20462;-60
2022/09/07 01:43:56;;;;;;;1.67;1.53;;;16.10;99.90;;;;;;5075632;28;20545;-60
2022/09/07 01:46:27;;;;;;;1.67;1.57;;;16.00;99.90;;;;;;5075352;28;20947;-60
2022/09/07 01:48:57;;;;;;;3.00;1.77;;;16.00;99.90;;;;;;5075158;28;20478;-60
2022/09/07 01:51:30;;;;;;;3.13;1.47;;;16.00;99.90;;;;;;5075565;28;20880;-59
2022/09/07 01:54:01;;;;;;;2.50;2.30;;;15.90;99.90;;;;;;5075441;28;20529;-60
2022/09/07 01:56:33;;;;;;;2.70;1.90;;;15.90;99.90;;;;;;5075433;28;20905;-60
2022/09/07 01:59:04;;;;;;;6.27;2.20;;;15.80;99.90;;;;;;5075312;28;20505;-60
2022/09/07 02:01:34;;;;;;;2.90;1.70;;;15.80;99.90;;;;;;5075207;28;20451;-60
2022/09/07 02:04:07;;;;;;;2.87;1.93;;;15.90;99.90;;;;;;5075393;28;20451;-60
2022/09/07 02:06:39;;;;;;;3.97;2.00;;;15.90;99.90;;;;;;5075119;28;20451;-60
2022/09/07 02:09:09;;;;;;;6.03;2.00;;;16.10;99.90;;;;;;5075032;28;20452;-60
2022/09/07 02:11:38;;;;;;;2.43;1.90;;;16.00;99.90;;;;;;5074925;28;20457;-60
2022/09/07 02:14:09;;;;;;;2.43;2.23;;;16.10;99.90;;;;;;5074634;28;20479;-60
2022/09/07 02:16:42;;;;;;;3.47;2.23;;;15.90;99.90;;;;;;5075000;28;20477;-60
2022/09/07 02:19:13;;;;;;;3.03;1.90;;;15.70;99.90;;;;;;5075065;28;20443;-59
2022/09/07 02:21:43;;;;;;;2.90;1.97;;;15.60;99.90;;;;;;5074846;28;20503;-60
2022/09/07 02:24:14;;;;;;;3.77;1.90;;;15.60;99.90;;;;;;5074706;28;20534;-60
2022/09/07 02:26:42;;;;;;;2.80;2.00;;;15.60;99.90;;;;;;5074657;28;20448;-60
2022/09/07 02:29:10;;;;;;;5.37;1.90;;;15.50;99.90;;;;;;5074781;28;20447;-60
2022/09/07 02:31:37;;;;;;;2.30;2.00;;;15.60;99.90;;;;;;5074710;28;20447;-59
2022/09/07 02:34:03;;;;;;;2.40;1.80;;;15.50;99.90;;;;;;5074526;28;20553;-59
2022/09/07 02:36:34;;;;;;;1.87;1.77;;;15.50;99.90;;;;;;5074526;28;20830;-60
2022/09/07 02:39:01;;;;;;;2.00;1.80;;;15.50;99.90;;;;;;5074335;28;20454;-59
2022/09/07 02:41:30;;;;;;;3.80;2.70;;;15.50;99.90;;;;;;5074595;28;20478;-60
2022/09/07 02:43:57;;;;;;;7.30;2.17;;;15.50;99.90;;;;;;5074469;28;20455;-59
2022/09/07 02:46:35;;;;;;;2.63;2.00;;;15.40;99.90;;;;;;5074417;28;20447;-59
2022/09/07 02:49:10;;;;;;;2.80;2.07;;;15.50;99.90;;;;;;5074144;28;20479;-59
2022/09/07 02:51:44;;;;;;;2.40;1.80;;;15.60;99.90;;;;;;5074184;28;20443;-60
2022/09/07 02:54:25;;;;;;;2.30;2.10;;;15.60;99.90;;;;;;5073672;28;20815;-60
2022/09/07 02:57:05;;;;;;;4.90;1.93;;;15.70;99.90;;;;;;5074195;28;20446;-60
2022/09/07 02:59:45;;;;;;;2.30;2.10;;;15.80;99.90;;;;;;5074122;28;20473;-60
2022/09/07 03:02:20;;;;;;;1.87;1.63;;;15.80;99.90;;;;;;5073919;28;20447;-60
2022/09/07 03:04:50;;;;;;;2.50;2.00;;;15.90;99.90;;;;;;5074096;28;20451;-60
2022/09/07 03:07:21;;;;;;;5.40;2.10;;;15.90;99.90;;;;;;5074031;28;20554;-60
2022/09/07 03:09:52;;;;;;;7.30;2.00;;;15.80;99.90;;;;;;5073895;28;20454;-60
2022/09/07 03:12:18;;;;;;;3.40;2.20;;;15.80;99.90;;;;;;5073756;28;20470;-60
2022/09/07 03:14:45;;;;;;;3.80;2.10;;;15.90;99.90;;;;;;5073874;28;20485;-60
2022/09/07 03:17:13;;;;;;;4.60;1.83;;;15.90;99.90;;;;;;5073827;28;20448;-59
2022/09/07 03:19:40;;;;;;;2.03;1.90;;;16.00;99.90;;;;;;5073654;28;20447;-60
2022/09/07 03:22:06;;;;;;;5.03;2.20;;;16.10;99.90;;;;;;5073539;28;20538;-60
2022/09/07 03:24:33;;;;;;;3.30;2.23;;;16.00;99.90;;;;;;5073516;28;20542;-60
2022/09/07 03:27:00;;;;;;;3.63;2.50;;;16.00;99.90;;;;;;5073386;28;20806;-60
2022/09/07 03:29:26;;;;;;;2.40;2.07;;;16.00;99.90;;;;;;5073596;28;20447;-60
2022/09/07 03:31:53;;;;;;;3.07;1.97;;;15.90;99.90;;;;;;5073389;28;20456;-60
2022/09/07 03:34:20;;;;;;;1.83;1.70;;;15.80;99.90;;;;;;5073218;28;20491;-59
2022/09/07 03:36:47;;;;;;;2.23;2.03;;;15.70;99.90;;;;;;5073352;28;20453;-60
2022/09/07 03:39:14;;;;;;;3.73;2.17;;;15.60;99.90;;;;;;5073353;28;20538;-59
2022/09/07 03:41:40;;;;;;;3.20;2.20;;;15.70;99.90;;;;;;5073096;28;20950;-60
2022/09/07 03:44:07;;;;;;;4.03;1.90;;;15.80;99.90;;;;;;5073464;28;20443;-59
2022/09/07 03:46:34;;;;;;;2.30;2.10;;;15.70;99.90;;;;;;5073403;28;20443;-60
2022/09/07 03:49:01;;;;;;;3.13;2.33;;;15.70;99.90;;;;;;5073098;28;20463;-59
2022/09/07 03:51:29;;;;;;;4.40;2.40;;;15.70;99.90;;;;;;5073249;28;20450;-59
2022/09/07 03:53:56;;;;;;;4.83;2.43;;;15.80;99.90;;;;;;5073052;28;20854;-59
2022/09/07 03:56:24;;;;;;;3.53;2.60;;;15.90;99.90;;;;;;5073349;28;20512;-60
2022/09/07 03:58:53;;;;;;;3.23;2.47;;;15.90;99.90;;;;;;5073329;28;20538;-60
2022/09/07 04:01:22;;;;;;;3.60;2.90;;;15.80;99.90;;;;;;5073156;28;20451;-60
2022/09/07 04:03:49;;;;;;;3.70;2.47;;;15.80;99.90;;;;;;5072943;28;20458;-60
2022/09/07 04:06:16;;;;;;;1.73;1.63;;;15.70;99.90;;;;;;5072205;28;20456;-60
2022/09/07 04:08:44;;;;;;;2.80;2.20;;;15.70;99.90;;;;;;5072872;28;20456;-60
2022/09/07 04:11:13;;;;;;;2.70;2.50;;;15.50;99.90;;;;;;5073142;28;20907;-60
2022/09/07 04:13:40;;;;;;;4.30;2.97;;;15.40;99.90;;;;;;5073016;28;20486;-60
2022/09/07 04:16:12;;;;;;;3.03;2.47;;;15.20;99.90;;;;;;5072931;28;20544;-60
2022/09/07 04:18:39;;;;;;;3.70;2.30;;;15.00;99.90;;;;;;5072908;28;20508;-60
2022/09/07 04:21:06;;;;;;;6.80;2.37;;;15.10;99.90;;;;;;5072749;28;20506;-59
2022/09/07 04:23:32;;;;;;;7.63;2.40;;;15.10;99.90;;;;;;5073032;28;20447;-59
2022/09/07 04:26:00;;;;;;;3.40;2.50;;;15.00;99.90;;;;;;5072923;28;20443;-59
2022/09/07 04:28:26;;;;;;;3.33;2.63;;;15.00;99.90;;;;;;5072890;28;20742;-60
2022/09/07 04:30:53;;;;;;;5.87;3.33;;;14.80;99.90;;;;;;5072806;28;20443;-60
2022/09/07 04:33:20;;;;;;;3.70;2.30;;;14.60;99.90;;;;;;5072784;28;20458;-59
2022/09/07 04:35:46;;;;;;;3.20;2.00;;;14.50;99.90;;;;;;5072547;28;20562;-59
2022/09/07 04:38:16;;;;;;;3.40;2.40;;;14.70;99.90;;;;;;5072866;28;20447;-60
2022/09/07 04:40:43;;;;;;;2.70;2.40;;;14.60;99.90;;;;;;5072765;28;20447;-60
2022/09/07 04:43:12;;;;;;;2.50;2.30;;;14.60;99.90;;;;;;5072625;28;20458;-59
2022/09/07 04:45:39;;;;;;;6.17;2.93;;;14.40;99.90;;;;;;5072577;28;20448;-59
2022/09/07 04:48:06;;;;;;;3.57;2.57;;;14.50;99.90;;;;;;5072325;28;20571;-59
2022/09/07 04:50:32;;;;;;;4.67;2.57;;;14.40;99.90;;;;;;5072447;28;20467;-59
2022/09/07 04:52:59;;;;;;;4.47;2.30;;;14.30;99.90;;;;;;5072662;28;20448;-59
2022/09/07 04:55:25;;;;;;;7.27;2.30;;;14.30;99.90;;;;;;5072491;28;20489;-59
2022/09/07 04:57:52;;;;;;;2.33;2.13;;;14.50;99.90;;;;;;5072561;28;20538;-59
2022/09/07 05:00:20;;;;;;;3.67;2.70;;;14.50;99.90;;;;;;5072437;28;20667;-60
2022/09/07 05:02:46;;;;;;;4.40;2.60;;;14.70;99.90;;;;;;5072212;28;20545;-59
2022/09/07 05:05:13;;;;;;;12.33;4.63;;;14.70;99.90;;;;;;5072584;28;20802;-60
2022/09/07 05:07:40;;;;;;;3.77;2.33;;;14.60;99.90;;;;;;5072461;28;20445;-60
2022/09/07 05:10:07;;;;;;;3.90;2.80;;;14.50;99.90;;;;;;5072438;28;20845;-59
2022/09/07 05:12:33;;;;;;;4.97;2.63;;;14.50;99.90;;;;;;5072334;28;20854;-60
2022/09/07 05:15:00;;;;;;;4.53;3.10;;;14.60;99.90;;;;;;5072165;28;20479;-59
2022/09/07 05:17:29;;;;;;;2.40;2.20;;;14.90;99.90;;;;;;5074311;28;20458;-60
2022/09/07 05:19:56;;;;;;;6.53;3.50;;;14.80;99.90;;;;;;5076136;28;20806;-59
2022/09/07 05:22:23;;;;;;;7.43;3.47;;;14.70;99.90;;;;;;5076032;28;20818;-59
2022/09/07 05:24:50;;;;;;;5.07;2.83;;;14.80;99.90;;;;;;5075866;28;20455;-60
2022/09/07 05:27:17;;;;;;;6.03;2.97;;;14.80;99.90;;;;;;5075783;28;20490;-60
2022/09/07 05:29:43;;;;;;;4.13;3.10;;;14.90;99.90;;;;;;5075852;28;20494;-60
2022/09/07 05:32:10;;;;;;;2.97;2.53;;;14.70;99.90;;;;;;5075648;28;20458;-60
2022/09/07 05:34:37;;;;;;;7.30;3.80;;;14.60;99.90;;;;;;5075694;28;20534;-60
2022/09/07 05:37:04;;;;;;;4.97;3.20;;;14.70;99.90;;;;;;5075683;28;20454;-59
2022/09/07 05:39:31;;;;;;;4.37;2.90;;;14.90;99.90;;;;;;5075650;28;20479;-60
2022/09/07 05:41:57;;;;;;;3.33;2.70;;;15.00;99.90;;;;;;5075538;28;20604;-60
2022/09/07 05:44:24;;;;;;;3.77;2.60;;;15.00;99.90;;;;;;5075371;28;20451;-60
2022/09/07 05:46:51;;;;;;;10.63;3.30;;;15.10;99.90;;;;;;5075546;28;20550;-59
2022/09/07 05:49:18;;;;;;;5.73;3.00;;;15.20;99.90;;;;;;5075193;28;20482;-60
2022/09/07 05:51:47;;;;;;;3.67;2.80;;;15.10;99.90;;;;;;5075358;28;20450;-60
2022/09/07 05:54:13;;;;;;;2.97;2.77;;;15.20;99.90;;;;;;5075342;28;20781;-60
2022/09/07 05:56:40;;;;;;;5.27;2.80;;;15.20;99.90;;;;;;5075008;28;20486;-60
2022/09/07 05:59:06;;;;;;;5.70;3.07;;;15.40;99.90;;;;;;5075074;28;20838;-60
2022/09/07 06:01:34;;;;;;;6.43;2.90;;;15.40;99.90;;;;;;5075105;28;20451;-60
2022/09/07 06:04:00;;;;;;;3.50;2.83;;;15.50;99.90;;;;;;5075200;28;20458;-59
2022/09/07 06:06:27;;;;;;;7.33;2.90;;;15.60;99.90;;;;;;5075092;28;20460;-59
2022/09/07 06:08:56;;;;;;;4.80;3.03;;;15.60;99.90;;;;;;5075138;28;20452;-60
2022/09/07 06:11:24;;;;;;;5.00;3.00;;;15.70;99.90;;;;;;5074845;28;20927;-60
2022/09/07 06:13:51;;;;;;;6.30;3.30;;;15.70;99.90;;;;;;5075095;28;20794;-60
2022/09/07 06:16:19;;;;;;;4.30;3.47;;;15.80;99.90;;;;;;5074945;28;20491;-60
2022/09/07 06:18:47;;;;;;;5.23;3.27;;;15.70;99.90;;;;;;5074908;28;20810;-59
2022/09/07 06:21:15;;;;;;;4.60;2.80;;;15.60;99.90;;;;;;5074826;28;20490;-59
2022/09/07 06:23:43;;;;;;;6.13;3.33;;;15.80;99.90;;;;;;5074740;28;20829;-59
2022/09/07 06:26:12;;;;;;;3.43;3.10;;;15.80;99.90;;;;;;5074441;28;20443;-59
2022/09/07 06:28:40;;;;;;;4.70;3.40;;;15.80;99.90;;;;;;5073801;28;20447;-60
2022/09/07 06:31:08;;;;;;;6.80;3.70;;;15.90;99.90;;;;;;5074566;28;20444;-59
2022/09/07 06:33:35;;;;;;;6.23;3.37;;;16.10;99.90;;;;;;5074731;28;20810;-59
2022/09/07 06:36:03;;;;;;;4.57;3.43;;;16.20;99.90;;;;;;5074399;28;20475;-60
2022/09/07 06:38:32;;;;;;;3.60;2.93;;;16.30;99.90;;;;;;5074367;28;20893;-60
2022/09/07 06:41:01;;;;;;;5.00;3.23;;;16.20;99.90;;;;;;5074544;28;20538;-60
2022/09/07 06:43:29;;;;;;;3.67;3.13;;;16.40;99.90;;;;;;5074400;28;20516;-60
2022/09/07 06:45:55;;;;;;;3.97;2.73;;;16.70;99.90;;;;;;5074389;28;20444;-60
2022/09/07 06:48:22;;;;;;;5.93;3.17;;;16.70;99.90;;;;;;5073810;28;20471;-60
2022/09/07 06:50:56;;;;;;;5.53;3.63;;;17.00;99.90;;;;;;5074177;28;20961;-60
2022/09/07 06:53:23;;;;;;;6.60;3.80;;;17.10;99.90;;;;;;5073980;28;20446;-60
2022/09/07 06:55:50;;;;;;;4.70;3.80;;;16.70;99.90;;;;;;5074183;28;20483;-59
2022/09/07 06:58:16;;;;;;;4.97;3.57;;;16.70;99.90;;;;;;5074078;28;20448;-60
2022/09/07 07:00:44;;;;;;;6.60;3.20;;;16.80;99.90;;;;;;5073945;28;20439;-60
2022/09/07 07:03:11;;;;;;;6.47;3.33;;;16.80;99.90;;;;;;5073762;28;20451;-60
2022/09/07 07:05:37;;;;;;;3.87;3.50;;;16.80;99.90;;;;;;5073681;28;20934;-59
2022/09/07 07:08:04;;;;;;;4.03;3.60;;;16.70;99.90;;;;;;5073695;28;20450;-59
2022/09/07 07:10:30;;;;;;;3.37;3.13;;;16.90;99.90;;;;;;5073851;28;20444;-60
2022/09/07 07:12:57;;;;;;;9.27;3.40;;;16.90;99.90;;;;;;5073400;28;20475;-59
2022/09/07 07:15:25;;;;;;;9.10;4.50;;;17.00;99.90;;;;;;5073709;28;20470;-60
2022/09/07 07:17:53;;;;;;;3.43;3.17;;;17.20;99.90;;;;;;5073361;28;20497;-59
2022/09/07 07:20:20;;;;;;;3.77;3.33;;;17.50;99.90;;;;;;5073549;28;20451;-60
2022/09/07 07:22:49;;;;;;;7.20;4.27;;;17.90;99.90;;;;;;5073554;28;20466;-59
2022/09/07 07:25:16;;;;;;;4.50;3.67;;;17.90;99.90;;;;;;5073543;28;20443;-59
2022/09/07 07:27:44;;;;;;;23.03;5.03;;;17.80;99.90;;;;;;5073582;28;21009;-60
2022/09/07 07:30:11;;;;;;;7.43;3.80;;;17.90;99.90;;;;;;5073239;28;20450;-59
2022/09/07 07:32:38;;;;;;;6.70;3.80;;;17.90;99.90;;;;;;5072494;28;20439;-60
2022/09/07 07:35:07;;;;;;;6.00;3.90;;;17.90;99.90;;;;;;5071742;28;20444;-59
2022/09/07 07:37:35;;;;;;;4.30;3.57;;;18.00;99.90;;;;;;5072504;28;20513;-61
2022/09/07 07:40:02;;;;;;;4.73;4.10;;;18.20;99.90;;;;;;5071567;28;20452;-60
2022/09/07 07:42:29;;;;;;;4.40;3.47;;;18.20;99.90;;;;;;5072921;28;20530;-59
2022/09/07 07:44:55;;;;;;;4.80;3.77;;;18.50;99.90;;;;;;5072423;28;20538;-60
2022/09/07 07:47:21;;;;;;;5.70;4.10;;;18.50;99.90;;;;;;5072680;28;20795;-60
2022/09/07 07:49:48;;;;;;;5.30;4.07;;;18.80;99.90;;;;;;5073130;28;20443;-59
2022/09/07 07:52:16;;;;;;;3.40;3.10;;;18.90;99.90;;;;;;5073151;28;20450;-60
2022/09/07 07:54:42;;;;;;;7.77;4.27;;;18.80;99.90;;;;;;5069957;28;20455;-60
2022/09/07 07:57:09;;;;;;;6.00;4.07;;;18.90;99.90;;;;;;5075813;28;21064;-59
2022/09/07 07:59:36;;;;;;;4.70;3.90;;;18.90;99.90;;;;;;5093295;28;20941;-60
2022/09/07 08:02:03;;;;;;;12.63;4.57;;;19.20;99.90;;;;;;5086055;28;20475;-60
2022/09/07 08:04:29;;;;;;;7.00;4.70;;;19.10;99.90;;;;;;5072397;28;20517;-59
2022/09/07 08:06:56;;;;;;;4.50;4.20;;;19.20;99.90;;;;;;5072837;28;20946;-60
2022/09/07 08:09:24;;;;;;;7.37;4.80;;;19.40;99.90;;;;;;5070492;28;20457;-61
2022/09/07 08:11:51;;;;;;;7.03;4.47;;;19.60;99.90;;;;;;5072373;28;20439;-59
2022/09/07 08:14:17;;;;;;;5.07;4.57;;;19.70;99.90;;;;;;5072282;28;20439;-60
2022/09/07 08:16:44;;;;;;;6.10;4.97;;;19.80;99.90;;;;;;5072549;28;20478;-59
2022/09/07 08:19:11;;;;;;;6.50;4.30;;;20.00;99.90;;;;;;5072826;28;20454;-59
2022/09/07 08:21:37;;;;;;;6.03;4.70;;;20.10;99.90;;;;;;5072665;28;20483;-63
2022/09/07 08:24:04;;;;;;;5.10;4.67;;;20.10;99.90;;;;;;5072459;28;20444;-58
2022/09/07 08:26:32;;;;;;;8.23;4.37;;;20.30;99.90;;;;;;5073115;28;20452;-58
2022/09/07 08:28:59;;;;;;;4.37;3.97;;;20.20;99.90;;;;;;5060440;28;20626;-58
2022/09/07 08:31:25;;;;;;;22.27;5.80;;;20.40;99.90;;;;;;5052288;28;20448;-59
2022/09/07 08:33:52;;;;;;;6.30;4.80;;;20.50;99.90;;;;;;5052620;28;20519;-58
2022/09/07 08:36:20;;;;;;;5.87;4.90;;;20.80;99.90;;;;;;5052284;28;21021;-60
2022/09/07 08:38:47;;;;;;;5.47;4.90;;;20.90;99.90;;;;;;5052436;28;20488;-60
2022/09/07 08:41:38;;;;;;;10.50;5.87;;;20.70;99.90;;;;;;5052361;28;20459;-61
2022/09/07 08:44:11;;;;;;;6.77;4.50;;;20.50;99.90;;;;;;5065105;28;20551;-60
2022/09/07 08:46:43;;;;;;;9.70;5.57;;;20.40;99.90;;;;;;5056655;28;20458;-60
2022/09/07 08:49:16;;;;;;;8.80;5.00;;;20.50;99.90;;;;;;5056941;28;20471;-61
2022/09/07 08:51:47;;;;;;;5.40;5.00;;;20.80;99.90;;;;;;5066644;28;20451;-60
2022/09/07 08:54:16;;;;;;;8.67;5.13;;;21.10;99.90;;;;;;5063652;28;20555;-57
2022/09/07 08:56:47;;;;;;;5.93;5.33;;;21.20;99.90;;;;;;5075555;28;20834;-59
2022/09/07 08:59:20;;;;;;;7.97;4.70;;;21.10;99.90;;;;;;5075628;28;20455;-59
2022/09/07 09:01:46;;;;;;;10.50;5.47;;;21.20;99.90;;;;;;5075495;28;20537;-59
2022/09/07 09:04:18;;;;;;;8.47;5.27;;;21.10;99.90;;;;;;5074482;28;20453;-54
2022/09/07 09:06:59;;;;;;;6.40;5.03;;;21.10;99.90;;;;;;5068210;28;20451;-63
2022/09/07 09:09:34;;;;;;;5.73;5.20;;;21.20;99.90;;;;;;5075081;28;20447;-66
2022/09/07 09:12:12;;;;;;;6.43;5.17;;;21.20;99.90;;;;;;5070769;28;20543;-58
2022/09/07 09:14:51;;;;;;;10.13;5.23;;;21.30;99.90;;;;;;5077101;28;20545;-59
2022/09/07 09:17:26;;;;;;;9.90;6.07;;;21.50;99.90;;;;;;5072255;28;20847;-59
2022/09/07 09:20:03;;;;;;;6.40;5.80;;;21.70;99.90;;;;;;5059655;28;20462;-61
2022/09/07 09:22:30;;;;;;;6.53;5.93;;;21.80;99.90;;;;;;5060564;28;20953;-60
2022/09/07 09:25:02;;;;;;;8.50;5.60;;;21.70;99.90;;;;;;5077970;28;20451;-58
2022/09/07 09:27:30;;;;;;;5.87;5.27;;;21.50;99.90;;;;;;5055497;28;20444;-59
2022/09/07 09:29:57;;;;;;;7.17;5.90;;;21.30;99.90;;;;;;5062226;28;20799;-59
2022/09/07 09:32:31;;;;;;;6.40;5.80;;;21.60;99.90;;;;;;5074652;28;20465;-58
2022/09/07 09:35:02;;;;;;;6.30;5.70;;;21.90;99.90;;;;;;5074200;28;20504;-58
2022/09/07 09:37:36;;;;;;;6.30;5.70;;;22.10;99.90;;;;;;5075491;28;20998;-58
2022/09/07 09:40:05;;;;;;;10.00;6.10;;;21.90;99.90;;;;;;5075333;28;20456;-58
2022/09/07 09:42:35;;;;;;;7.00;6.30;;;22.00;99.90;;;;;;5075539;28;20508;-59
2022/09/07 09:45:15;;;;;;;7.20;5.97;;;22.10;99.90;;;;;;5072461;28;20971;-59
2022/09/07 09:47:42;;;;;;;8.47;5.90;;;22.30;99.90;;;;;;5073095;28;20904;-62
2022/09/07 09:50:20;;;;;;;6.17;5.43;;;22.50;99.90;;;;;;5072903;28;20459;-60
2022/09/07 09:52:47;;;;;;;6.03;5.53;;;22.70;99.90;;;;;;5074105;28;20533;-60
2022/09/07 09:55:22;;;;;;;8.80;6.63;;;22.70;99.90;;;;;;5073877;28;20447;-60
2022/09/07 09:57:52;;;;;;;8.20;5.90;;;22.50;99.90;;;;;;5075204;28;20517;-60
2022/09/07 10:00:20;;;;;;;6.33;5.77;;;22.30;99.90;;;;;;5074596;28;20447;-60
2022/09/07 10:03:17;;;;;;;7.40;6.40;;;22.50;99.90;;;;;;5070170;28;20939;-59
2022/09/07 10:05:45;;;;;;;12.20;6.30;;;22.50;99.90;;;;;;5056370;28;20461;-60
2022/09/07 10:08:18;;;;;;;6.30;5.83;;;22.40;99.90;;;;;;5070661;28;20466;-60
2022/09/07 10:10:56;;;;;;;5.87;5.37;;;22.40;99.90;;;;;;5073681;28;20440;-60
2022/09/07 10:13:30;;;;;;;12.83;6.10;;;22.70;99.90;;;;;;5074798;28;20550;-59
2022/09/07 10:15:58;;;;;;;6.03;5.27;;;22.80;99.90;;;;;;5072993;28;20456;-60
2022/09/07 10:18:32;;;;;;;6.70;6.00;;;23.10;99.90;;;;;;5074665;28;20527;-60
2022/09/07 10:21:14;;;;;;;6.00;5.50;;;23.10;99.90;;;;;;5062094;28;20447;-61
2022/09/07 10:23:41;;;;;;;7.10;5.43;;;23.40;99.90;;;;;;5068749;28;20497;-62
2022/09/07 10:26:26;;;;;;;8.20;6.03;;;23.40;99.90;;;;;;5075096;28;20890;-63
2022/09/07 10:29:16;;;;;;;6.80;6.30;;;23.60;99.90;;;;;;5074516;28;20934;-63
2022/09/07 10:32:17;;;;;;;7.03;6.43;;;23.60;99.90;;;;;;5073938;28;20452;-63
2022/09/07 10:34:54;;;;;;;6.87;6.00;;;23.50;99.90;;;;;;5061699;28;20463;-63
2022/09/07 10:37:32;;;;;;;6.47;5.93;;;23.60;99.90;;;;;;5062268;28;20869;-63
2022/09/07 10:40:11;;;;;;;7.67;5.90;;;23.80;99.90;;;;;;5071074;28;20474;-63
2022/09/07 10:42:44;;;;;;;9.87;5.67;;;23.90;99.90;;;;;;5072635;28;20451;-64
2022/09/07 10:45:18;;;;;;;6.63;6.13;;;24.30;99.90;;;;;;5073799;28;20522;-64
2022/09/07 10:47:54;;;;;;;6.50;6.00;;;24.00;99.90;;;;;;5074068;28;20517;-64
2022/09/07 10:50:29;;;;;;;6.37;5.77;;;24.00;99.90;;;;;;5060912;28;20477;-59
2022/09/07 10:53:16;;;;;;;7.17;5.70;;;23.90;99.90;;;;;;5061046;28;20456;-61
2022/09/07 10:55:53;;;;;;;6.80;6.37;;;23.70;99.90;;;;;;5066329;28;20458;-61
2022/09/07 10:58:26;;;;;;;9.37;6.97;;;23.80;99.90;;;;;;5072822;28;20479;-62
2022/09/07 11:01:07;;;;;;;7.13;6.23;;;23.90;99.90;;;;;;5079142;28;20459;-60
2022/09/07 11:03:57;;;;;;;6.67;6.07;;;23.90;99.90;;;;;;5073908;28;20454;-61
2022/09/07 11:06:32;;;;;;;6.93;6.33;;;23.90;99.90;;;;;;5067934;28;21022;-62
2022/09/07 11:09:11;;;;;;;6.77;6.10;;;24.20;99.90;;;;;;5073558;28;20538;-62
2022/09/07 11:11:41;;;;;;;7.40;6.70;;;24.50;99.90;;;;;;5070267;28;20457;-62
2022/09/07 11:14:13;;;;;;;10.43;7.70;;;24.20;99.90;;;;;;5058627;28;20451;-60
2022/09/07 11:16:50;;;;;;;8.90;5.93;;;24.20;99.90;;;;;;5073013;28;20554;-61
2022/09/07 11:19:21;;;;;;;7.13;6.43;;;24.40;99.90;;;;;;5068662;28;20487;-62
2022/09/07 11:21:58;;;;;;;9.73;6.00;;;24.50;99.90;;;;;;5072029;28;20459;-59
2022/09/07 11:24:31;;;;;;;7.00;6.30;;;24.20;99.90;;;;;;5072659;28;20462;-59
2022/09/07 11:27:02;;;;;;;6.70;6.20;;;24.10;99.90;;;;;;5070992;28;20459;-59
2022/09/07 11:29:34;;;;;;;7.17;6.50;;;24.10;99.90;;;;;;5069937;28;20460;-58
2022/09/07 11:32:06;;;;;;;7.07;6.47;;;24.20;99.90;;;;;;5069540;28;20805;-59
2022/09/07 11:34:37;;;;;;;6.57;6.07;;;24.20;99.90;;;;;;5072270;28;20473;-59
2022/09/07 11:37:08;;;;;;;9.13;7.10;;;23.80;99.90;;;;;;5071427;28;20830;-61
2022/09/07 11:39:40;;;;;;;9.80;7.30;;;23.90;99.90;;;;;;5071700;28;20455;-61
2022/09/07 11:42:17;;;;;;;6.60;6.10;;;24.20;99.90;;;;;;5071146;28;20957;-61
2022/09/07 11:44:48;;;;;;;7.43;6.73;;;24.40;99.90;;;;;;5072241;28;20459;-60
2022/09/07 11:47:27;;;;;;;7.17;6.23;;;24.40;99.90;;;;;;5071138;28;20903;-60
2022/09/07 11:49:54;;;;;;;6.50;5.90;;;24.70;99.90;;;;;;5079109;28;20458;-59
2022/09/07 11:52:31;;;;;;;6.63;6.20;;;24.90;99.90;;;;;;5087251;28;20454;-60
2022/09/07 11:55:02;;;;;;;7.90;7.17;;;25.10;99.90;;;;;;5071967;28;20455;-59
2022/09/07 11:57:48;;;;;;;6.90;6.40;;;25.30;99.90;;;;;;5071401;28;20510;-63
2022/09/07 12:00:20;;;;;;;8.40;7.27;;;25.10;99.90;;;;;;5071109;28;20525;-66
2022/09/07 12:03:06;;;;;;;7.33;6.63;;;24.70;99.90;;;;;;5064459;28;20976;-65
2022/09/07 12:05:49;;;;;;;10.23;7.10;;;24.70;99.90;;;;;;5071615;28;20462;-66
2022/09/07 12:08:30;;;;;;;7.57;7.00;;;24.70;99.90;;;;;;5061106;28;20461;-58
2022/09/07 12:11:17;;;;;;;8.70;6.20;;;24.90;99.90;;;;;;5071231;28;20953;-58
2022/09/07 12:14:02;;;;;;;8.27;7.07;;;24.80;99.90;;;;;;5071481;28;21069;-60
2022/09/07 12:16:49;;;;;;;7.20;6.50;;;24.80;99.90;;;;;;5060781;28;20469;-59
2022/09/07 12:19:23;;;;;;;7.07;6.47;;;24.50;99.90;;;;;;5070242;28;20459;-58
2022/09/07 12:21:56;;;;;;;6.07;5.67;;;24.40;99.90;;;;;;5072257;28;20550;-57
2022/09/07 12:24:37;;;;;;;7.03;6.50;;;24.50;99.90;;;;;;5072905;28;20879;-59
2022/09/07 12:27:04;;;;;;;7.93;7.23;;;24.80;99.90;;;;;;5070509;28;20457;-58
2022/09/07 12:29:31;;;;;;;7.03;6.53;;;25.00;99.90;;;;;;5071739;28;20451;-59
2022/09/07 12:31:59;;;;;;;8.67;6.77;;;25.30;99.90;;;;;;5056795;28;20459;-61
2022/09/07 12:35:00;;;;;;;8.00;7.30;;;25.30;99.90;;;;;;5071812;28;20455;-61
2022/09/07 12:37:43;;;;;;;6.43;5.83;;;24.70;99.90;;;;;;5067289;28;20491;-58
2022/09/07 12:40:48;;;;;;;7.40;6.80;;;24.90;99.90;;;;;;5061533;28;21022;-58
2022/09/07 12:43:51;;;;;;;6.70;6.17;;;25.00;99.90;;;;;;5068528;28;20466;-59
2022/09/07 12:46:20;;;;;;;6.70;6.10;;;25.20;99.90;;;;;;5072211;28;20534;-59
2022/09/07 12:48:57;;;;;;;6.63;6.13;;;25.10;99.90;;;;;;5051833;28;20492;-61
2022/09/07 12:51:35;;;;;;;6.83;6.33;;;25.40;99.90;;;;;;5059766;28;21029;-61
2022/09/07 12:54:10;;;;;;;8.03;6.80;;;25.50;99.90;;;;;;5071394;28;20950;-62
2022/09/07 12:56:44;;;;;;;7.00;6.37;;;25.20;99.90;;;;;;5070184;28;20541;-56
2022/09/07 12:59:37;;;;;;;8.93;6.97;;;24.80;99.90;;;;;;5070483;28;20465;-57
2022/09/07 13:02:23;;;;;;;7.13;6.53;;;24.80;99.90;;;;;;5069836;28;20453;-56
2022/09/07 13:05:03;;;;;;;6.40;5.90;;;25.10;99.90;;;;;;5059039;28;20462;-61